createdAt,value
2019-01-17T00:01:36.733Z,28.70
2019-01-17T00:04:26.634Z,29.87
2019-01-17T00:07:10.199Z,25.57
2019-01-17T00:10:08.639Z,24.53
2019-01-17T00:12:49.633Z,30.83
2019-01-17T00:15:54.229Z,31.83
2019-01-17T00:18:42.019Z,34.70
2019-01-17T00:21:31.631Z,33.37
2019-01-17T00:24:26.009Z,35.77
2019-01-17T00:27:14.539Z,33.67
2019-01-17T00:30:16.154Z,32.93
2019-01-17T00:33:05.379Z,36.00
2019-01-17T00:36:06.483Z,36.77
2019-01-17T00:38:55.793Z,31.40
2019-01-17T00:41:43.609Z,33.53
2019-01-17T00:44:38.695Z,33.13
2019-01-17T00:47:28.209Z,31.80
2019-01-17T00:50:12.934Z,34.67
2019-01-17T00:53:02.230Z,31.23
2019-01-17T00:55:51.506Z,33.57
2019-01-17T00:58:46.759Z,37.20
2019-01-17T01:01:34.554Z,32.27
2019-01-17T01:04:36.224Z,31.40
2019-01-17T01:07:25.394Z,30.93
2019-01-17T01:10:20.839Z,34.77
2019-01-17T01:13:05.244Z,33.33
2019-01-17T01:15:57.199Z,32.30
2019-01-17T01:18:41.054Z,31.23
2019-01-17T01:21:25.013Z,35.13
2019-01-17T01:24:20.394Z,35.77
2019-01-17T01:27:09.194Z,30.70
2019-01-17T01:29:58.389Z,30.53
2019-01-17T01:32:43.214Z,31.50
2019-01-17T01:35:38.259Z,34.77
2019-01-17T01:38:30.544Z,33.00
2019-01-17T01:41:09.144Z,36.93
2019-01-17T01:43:52.033Z,34.83
2019-01-17T01:46:47.109Z,33.23
2019-01-17T01:49:35.434Z,33.30
2019-01-17T01:52:27.549Z,31.27
2019-01-17T01:54:58.219Z,31.30
2019-01-17T01:57:28.754Z,33.57
2019-01-17T01:59:59.288Z,31.07
2019-01-17T02:02:29.709Z,32.40
2019-01-17T02:05:00.299Z,32.17
2019-01-17T02:07:31.064Z,33.13
2019-01-17T02:10:01.589Z,34.07
2019-01-17T02:12:31.989Z,36.20
2019-01-17T02:15:02.394Z,34.10
2019-01-17T02:17:32.884Z,31.63
2019-01-17T02:20:04.946Z,29.93
2019-01-17T02:22:35.474Z,31.07
2019-01-17T02:25:06.534Z,34.73
2019-01-17T02:27:37.154Z,34.77
2019-01-17T02:30:07.916Z,36.20
2019-01-17T02:32:38.326Z,35.97
2019-01-17T02:35:09.084Z,34.77
2019-01-17T02:37:39.645Z,36.33
2019-01-17T02:40:12.094Z,37.07
2019-01-17T02:42:42.600Z,37.10
2019-01-17T02:45:14.855Z,36.07
2019-01-17T02:47:45.216Z,36.37
2019-01-17T02:50:15.684Z,36.80
2019-01-17T02:52:46.214Z,37.30
2019-01-17T02:55:32.489Z,37.87
2019-01-17T02:58:03.130Z,36.33
2019-01-17T03:00:33.775Z,38.83
2019-01-17T03:03:04.137Z,36.03
2019-01-17T03:05:34.589Z,35.60
2019-01-17T03:08:05.084Z,36.40
2019-01-17T03:10:35.519Z,33.27
2019-01-17T03:13:05.990Z,32.40
2019-01-17T03:15:36.380Z,31.37
2019-01-17T03:18:06.989Z,29.57
2019-01-17T03:20:37.645Z,31.93
2019-01-17T03:23:08.217Z,31.20
2019-01-17T03:25:38.734Z,32.10
2019-01-17T03:28:09.581Z,34.47
2019-01-17T03:30:40.013Z,35.30
2019-01-17T03:33:10.321Z,36.97
2019-01-17T03:35:40.917Z,35.63
2019-01-17T03:38:11.314Z,36.03
2019-01-17T03:40:41.755Z,34.97
2019-01-17T03:43:12.194Z,38.20
2019-01-17T03:45:42.774Z,39.20
2019-01-17T03:48:13.209Z,37.97
2019-01-17T03:50:43.728Z,34.80
2019-01-17T03:53:14.409Z,37.27
2019-01-17T03:55:45.162Z,33.57
2019-01-17T03:58:15.594Z,31.67
2019-01-17T04:00:46.069Z,37.20
2019-01-17T04:03:16.520Z,35.00
2019-01-17T04:05:47.116Z,37.27
2019-01-17T04:08:17.690Z,32.90
2019-01-17T04:10:48.174Z,29.77
2019-01-17T04:13:18.753Z,31.47
2019-01-17T04:15:49.184Z,28.10
2019-01-17T04:18:19.854Z,27.13
2019-01-17T04:20:50.332Z,27.83
2019-01-17T04:23:20.884Z,29.67
2019-01-17T04:25:51.256Z,26.23
2019-01-17T04:28:21.919Z,26.00
2019-01-17T04:30:52.399Z,29.13
2019-01-17T04:33:22.960Z,26.27
2019-01-17T04:35:53.494Z,27.60
2019-01-17T04:38:23.915Z,22.40
2019-01-17T04:40:54.544Z,24.70
2019-01-17T04:43:24.972Z,23.77
2019-01-17T04:45:55.419Z,25.63
2019-01-17T04:48:26.243Z,26.93
2019-01-17T04:50:56.689Z,26.97
2019-01-17T04:53:27.109Z,25.70
2019-01-17T04:55:57.771Z,25.67
2019-01-17T04:58:28.333Z,26.33
2019-01-17T05:00:58.713Z,26.70
2019-01-17T05:03:29.039Z,25.07
2019-01-17T05:05:59.520Z,27.27
2019-01-17T05:08:30.024Z,26.80
2019-01-17T05:11:00.343Z,27.53
2019-01-17T05:13:30.800Z,33.90
2019-01-17T05:16:01.259Z,25.13
2019-01-17T05:18:31.814Z,30.17
2019-01-17T05:21:02.356Z,28.63
2019-01-17T05:23:33.040Z,27.53
2019-01-17T05:26:03.439Z,29.60
2019-01-17T05:28:34.029Z,25.03
2019-01-17T05:31:05.218Z,25.50
2019-01-17T05:33:35.630Z,27.57
2019-01-17T05:36:06.294Z,29.67
2019-01-17T05:38:36.646Z,26.87
2019-01-17T05:41:07.004Z,23.23
2019-01-17T05:43:37.534Z,22.83
2019-01-17T05:46:07.954Z,27.40
2019-01-17T05:48:38.589Z,23.53
2019-01-17T05:51:09.109Z,21.07
2019-01-17T05:53:39.534Z,25.33
2019-01-17T05:56:10.039Z,22.73
2019-01-17T05:58:40.659Z,26.20
2019-01-17T06:01:11.219Z,23.50
2019-01-17T06:03:41.654Z,23.10
2019-01-17T06:06:12.133Z,25.50
2019-01-17T06:08:42.649Z,22.30
2019-01-17T06:11:13.219Z,21.43
2019-01-17T06:13:43.674Z,21.63
2019-01-17T06:16:14.138Z,24.00
2019-01-17T06:18:44.714Z,25.03
2019-01-17T06:21:15.244Z,28.00
2019-01-17T06:23:45.659Z,25.87
2019-01-17T06:26:16.031Z,26.23
2019-01-17T06:28:46.515Z,27.10
2019-01-17T06:31:16.859Z,26.10
2019-01-17T06:33:47.249Z,24.77
2019-01-17T06:36:17.714Z,29.20
2019-01-17T06:38:48.039Z,27.97
2019-01-17T06:41:18.673Z,26.83
2019-01-17T06:43:49.239Z,29.03
2019-01-17T06:46:19.733Z,30.73
2019-01-17T06:48:50.184Z,30.93
2019-01-17T06:51:20.783Z,26.70
2019-01-17T06:53:51.355Z,30.20
2019-01-17T06:56:21.729Z,29.00
2019-01-17T06:58:52.264Z,30.30
2019-01-17T07:01:22.639Z,29.30
2019-01-17T07:03:53.163Z,28.53
2019-01-17T07:06:23.769Z,31.73
2019-01-17T07:08:54.278Z,28.17
2019-01-17T07:11:24.664Z,31.73
2019-01-17T07:13:55.155Z,27.63
2019-01-17T07:16:25.724Z,31.13
2019-01-17T07:18:56.440Z,26.47
2019-01-17T07:21:26.979Z,26.80
2019-01-17T07:23:57.474Z,29.97
2019-01-17T07:26:27.809Z,26.67
2019-01-17T07:28:58.394Z,26.93
2019-01-17T07:31:28.824Z,30.77
2019-01-17T07:33:59.224Z,29.50
2019-01-17T07:36:29.695Z,30.90
2019-01-17T07:39:00.217Z,29.97
2019-01-17T07:41:30.699Z,34.23
2019-01-17T07:44:02.229Z,34.53
2019-01-17T07:46:32.814Z,30.83
2019-01-17T07:49:03.379Z,30.10
2019-01-17T07:51:33.874Z,30.67
2019-01-17T07:54:04.298Z,31.67
2019-01-17T07:56:34.654Z,33.17
2019-01-17T07:59:05.239Z,35.97
2019-01-17T08:01:35.829Z,30.07
2019-01-17T08:04:06.274Z,33.87
2019-01-17T08:06:36.729Z,33.83
2019-01-17T08:09:10.238Z,30.73
2019-01-17T08:11:40.748Z,36.57
2019-01-17T08:14:11.360Z,35.70
2019-01-17T08:16:41.959Z,34.27
2019-01-17T08:19:12.434Z,39.00
2019-01-17T08:21:42.984Z,39.57
2019-01-17T08:24:13.549Z,33.87
2019-01-17T08:26:44.084Z,39.83
2019-01-17T08:29:14.434Z,38.50
2019-01-17T08:31:44.788Z,43.10
2019-01-17T08:34:15.369Z,44.17
2019-01-17T08:36:45.779Z,38.57
2019-01-17T08:39:16.260Z,38.80
2019-01-17T08:41:47.015Z,37.87
2019-01-17T08:44:17.429Z,36.33
2019-01-17T08:46:47.849Z,34.80
2019-01-17T08:49:18.319Z,39.13
2019-01-17T08:51:48.644Z,35.57
2019-01-17T08:54:19.063Z,35.33
2019-01-17T08:56:49.594Z,33.27
2019-01-17T08:59:19.969Z,39.00
2019-01-17T09:01:50.459Z,36.40
2019-01-17T09:04:20.889Z,32.63
2019-01-17T09:06:51.239Z,36.97
2019-01-17T09:09:21.764Z,36.00
2019-01-17T09:11:52.169Z,32.37
2019-01-17T09:14:22.650Z,34.20
2019-01-17T09:16:53.199Z,33.53
2019-01-17T09:19:23.699Z,35.03
2019-01-17T09:21:54.234Z,35.27
2019-01-17T09:24:25.009Z,33.37
2019-01-17T09:26:55.458Z,34.87
2019-01-17T09:29:25.859Z,30.93
2019-01-17T09:31:56.239Z,33.07
2019-01-17T09:34:26.775Z,31.63
2019-01-17T09:36:57.254Z,31.17
2019-01-17T09:39:27.718Z,33.93
2019-01-17T09:41:58.174Z,34.23
2019-01-17T09:44:28.514Z,35.80
2019-01-17T09:46:58.959Z,34.90
2019-01-17T09:49:29.374Z,37.10
2019-01-17T09:51:59.829Z,30.37
2019-01-17T09:54:30.240Z,30.70
2019-01-17T09:57:00.684Z,31.57
2019-01-17T09:59:31.144Z,32.67
2019-01-17T10:02:01.549Z,36.13
2019-01-17T10:04:32.064Z,34.67
2019-01-17T10:07:02.516Z,33.80
2019-01-17T10:09:32.909Z,36.97
2019-01-17T10:12:03.384Z,35.33
2019-01-17T10:14:33.829Z,35.53
2019-01-17T10:17:44.064Z,32.20
2019-01-17T10:20:57.186Z,34.30
2019-01-17T10:23:59.759Z,33.80
2019-01-17T10:27:00.186Z,35.50
2019-01-17T10:30:04.554Z,32.67
2019-01-17T10:33:12.919Z,32.43
2019-01-17T10:36:22.926Z,36.87
2019-01-17T10:39:08.675Z,34.10
2019-01-17T10:42:08.815Z,36.60
2019-01-17T10:45:20.059Z,37.03
2019-01-17T10:48:52.199Z,34.80
2019-01-17T10:52:07.034Z,35.57
2019-01-17T10:55:15.244Z,35.53
2019-01-17T10:58:31.136Z,37.63
2019-01-17T11:01:36.118Z,36.40
2019-01-17T11:04:28.699Z,33.93
2019-01-17T11:07:15.266Z,37.87
2019-01-17T11:10:29.128Z,37.50
2019-01-17T11:13:27.546Z,37.83
2019-01-17T11:16:23.387Z,35.67
2019-01-17T11:19:25.265Z,35.07
2019-01-17T11:22:29.400Z,34.97
2019-01-17T11:25:29.077Z,34.77
2019-01-17T11:28:39.394Z,34.60
2019-01-17T11:31:57.356Z,33.00
2019-01-17T11:35:20.196Z,35.47
2019-01-17T11:38:40.383Z,33.13
2019-01-17T11:41:50.374Z,32.47
2019-01-17T11:44:56.179Z,35.80
2019-01-17T11:47:59.988Z,34.07
2019-01-17T11:51:23.814Z,34.13
2019-01-17T11:54:19.864Z,33.57
2019-01-17T11:57:36.609Z,34.03
2019-01-17T12:00:50.724Z,37.20
2019-01-17T12:04:13.448Z,34.17
2019-01-17T12:06:43.890Z,34.37
2019-01-17T12:09:14.564Z,34.77
2019-01-17T12:11:45.178Z,36.13
2019-01-17T12:14:15.678Z,36.17
2019-01-17T12:16:46.174Z,33.60
2019-01-17T12:19:16.894Z,31.07
2019-01-17T12:21:47.634Z,35.27
2019-01-17T12:24:17.999Z,32.10
2019-01-17T12:26:48.569Z,31.83
2019-01-17T12:29:19.004Z,32.70
2019-01-17T12:31:49.394Z,32.30
2019-01-17T12:34:19.829Z,35.13
2019-01-17T12:36:50.266Z,31.50
2019-01-17T12:39:20.749Z,33.43
2019-01-17T12:41:51.308Z,30.93
2019-01-17T12:44:21.694Z,30.30
2019-01-17T12:46:52.174Z,32.43
2019-01-17T12:49:22.694Z,34.80
2019-01-17T12:51:53.099Z,33.37
2019-01-17T12:54:23.515Z,38.17
2019-01-17T12:56:54.321Z,32.10
2019-01-17T12:59:24.866Z,32.77
2019-01-17T13:01:55.374Z,29.20
2019-01-17T13:04:25.818Z,32.07
2019-01-17T13:06:56.295Z,30.30
2019-01-17T13:09:27.103Z,32.17
2019-01-17T13:11:57.648Z,33.07
2019-01-17T13:14:28.519Z,31.93
2019-01-17T13:16:59.049Z,34.57
2019-01-17T13:19:29.749Z,31.27
2019-01-17T13:22:00.429Z,29.20
2019-01-17T13:24:30.974Z,31.60
2019-01-17T13:27:01.456Z,32.30
2019-01-17T13:29:31.932Z,32.73
2019-01-17T13:32:02.337Z,31.30
2019-01-17T13:34:32.789Z,30.73
2019-01-17T13:37:03.499Z,30.53
2019-01-17T13:39:33.975Z,30.00
2019-01-17T13:42:04.764Z,31.87
2019-01-17T13:44:35.399Z,36.77
2019-01-17T13:47:06.015Z,30.40
2019-01-17T13:49:36.634Z,39.30
2019-01-17T13:52:07.044Z,34.40
2019-01-17T13:54:37.819Z,33.93
2019-01-17T13:57:08.328Z,36.30
2019-01-17T13:59:39.104Z,33.27
2019-01-17T14:02:09.779Z,32.97
2019-01-17T14:04:40.494Z,36.63
2019-01-17T14:07:11.006Z,32.63
2019-01-17T14:09:41.493Z,35.77
2019-01-17T14:12:12.080Z,37.37
2019-01-17T14:14:42.779Z,34.07
2019-01-17T14:17:13.324Z,34.10
2019-01-17T14:19:44.119Z,35.83
2019-01-17T14:22:14.639Z,36.47
2019-01-17T14:24:45.219Z,36.77
2019-01-17T14:27:15.719Z,35.33
2019-01-17T14:29:46.134Z,40.23
2019-01-17T14:32:16.634Z,39.77
2019-01-17T14:34:47.174Z,40.33
2019-01-17T14:37:17.729Z,39.13
2019-01-17T14:39:48.349Z,56.40
2019-01-17T14:42:19.124Z,94.47
2019-01-17T14:44:49.804Z,53.43
2019-01-17T14:47:20.394Z,37.23
2019-01-17T14:49:51.054Z,36.70
2019-01-17T14:52:21.589Z,39.23
2019-01-17T14:54:52.419Z,41.20
2019-01-17T14:57:23.394Z,38.63
2019-01-17T14:59:53.773Z,41.93
2019-01-17T15:02:24.174Z,41.10
2019-01-17T15:04:55.819Z,40.97
2019-01-17T15:07:26.371Z,39.63
2019-01-17T15:09:56.914Z,37.60
2019-01-17T15:12:27.478Z,51.67
2019-01-17T15:14:58.179Z,47.77
2019-01-17T15:17:28.649Z,45.63
2019-01-17T15:19:59.179Z,38.97
2019-01-17T15:22:29.724Z,41.03
2019-01-17T15:25:00.394Z,49.00
2019-01-17T15:27:31.139Z,41.33
2019-01-17T15:30:01.571Z,38.97
2019-01-17T15:32:32.081Z,41.07
2019-01-17T15:35:02.714Z,42.23
2019-01-17T15:37:33.320Z,45.53
2019-01-17T15:40:04.113Z,45.23
2019-01-17T15:42:34.658Z,46.17
2019-01-17T15:45:06.083Z,45.97
2019-01-17T15:47:37.889Z,43.00
2019-01-17T15:50:08.591Z,45.80
2019-01-17T15:52:39.089Z,44.23
2019-01-17T15:55:11.509Z,45.97
2019-01-17T15:57:42.014Z,44.93
2019-01-17T16:00:24.789Z,47.80
2019-01-17T16:02:55.403Z,45.07
2019-01-17T16:05:25.919Z,48.23
2019-01-17T16:07:56.606Z,49.90
2019-01-17T16:10:27.154Z,49.57
2019-01-17T16:12:57.609Z,55.53
2019-01-17T16:15:28.980Z,55.63
2019-01-17T16:17:59.629Z,56.07
2019-01-17T16:20:30.299Z,59.93
2019-01-17T16:23:00.874Z,60.30
2019-01-17T16:25:31.384Z,59.40
2019-01-17T16:28:01.784Z,54.33
2019-01-17T16:30:33.954Z,56.37
2019-01-17T16:33:04.724Z,58.80
2019-01-17T16:35:35.239Z,54.13
2019-01-17T16:38:05.815Z,62.67
2019-01-17T16:40:36.274Z,58.20
2019-01-17T16:43:06.739Z,58.33
2019-01-17T16:45:37.334Z,62.23
2019-01-17T16:48:07.799Z,61.13
2019-01-17T16:50:38.364Z,76.37
2019-01-17T16:53:08.803Z,58.10
2019-01-17T16:55:39.479Z,61.03
2019-01-17T16:58:10.064Z,56.87
2019-01-17T17:00:57.319Z,60.10
2019-01-17T17:03:28.023Z,60.07
2019-01-17T17:05:58.589Z,56.40
2019-01-17T17:08:29.189Z,51.70
2019-01-17T17:10:59.859Z,54.37
2019-01-17T17:13:30.314Z,55.53
2019-01-17T17:16:00.879Z,49.13
2019-01-17T17:18:31.304Z,52.87
2019-01-17T17:21:01.989Z,57.00
2019-01-17T17:23:32.802Z,57.10
2019-01-17T17:26:03.525Z,52.93
2019-01-17T17:28:34.389Z,60.17
2019-01-17T17:31:05.184Z,59.43
2019-01-17T17:33:35.709Z,56.37
2019-01-17T17:36:06.485Z,59.10
2019-01-17T17:38:37.143Z,59.47
2019-01-17T17:41:07.594Z,59.97
2019-01-17T17:43:38.014Z,62.47
2019-01-17T17:46:08.645Z,58.83
2019-01-17T17:48:39.069Z,59.50
2019-01-17T17:51:09.729Z,56.47
2019-01-17T17:53:40.594Z,61.43
2019-01-17T17:56:12.794Z,54.77
2019-01-17T17:58:43.739Z,64.10
2019-01-17T18:01:25.524Z,59.30
2019-01-17T18:03:56.414Z,54.03
2019-01-17T18:06:26.955Z,59.17
2019-01-17T18:08:57.667Z,63.20
2019-01-17T18:11:28.134Z,61.47
2019-01-17T18:13:58.743Z,60.20
2019-01-17T18:16:29.474Z,58.27
2019-01-17T18:19:00.219Z,63.33
2019-01-17T18:21:31.074Z,61.57
2019-01-17T18:24:01.989Z,59.40
2019-01-17T18:26:32.878Z,69.00
2019-01-17T18:29:03.679Z,64.40
2019-01-17T18:31:34.299Z,59.83
2019-01-17T18:34:04.688Z,65.87
2019-01-17T18:36:35.264Z,59.87
2019-01-17T18:39:11.509Z,63.23
2019-01-17T18:41:42.169Z,69.20
2019-01-17T18:44:12.684Z,76.50
2019-01-17T18:46:43.191Z,68.27
2019-01-17T18:49:14.045Z,76.70
2019-01-17T18:51:45.495Z,72.53
2019-01-17T18:54:16.085Z,65.07
2019-01-17T18:56:46.629Z,65.77
2019-01-17T18:59:17.166Z,61.77
2019-01-17T19:01:47.642Z,67.93
2019-01-17T19:04:18.384Z,71.07
2019-01-17T19:06:48.903Z,71.47
2019-01-17T19:09:19.419Z,62.53
2019-01-17T19:11:50.169Z,62.27
2019-01-17T19:14:20.568Z,61.33
2019-01-17T19:16:51.055Z,61.10
2019-01-17T19:19:21.550Z,63.83
2019-01-17T19:21:52.049Z,60.63
2019-01-17T19:24:22.634Z,58.07
2019-01-17T19:26:53.274Z,68.90
2019-01-17T19:29:24.303Z,63.90
2019-01-17T19:31:54.841Z,65.63
2019-01-17T19:34:25.614Z,61.63
2019-01-17T19:36:56.514Z,69.07
2019-01-17T19:39:27.214Z,91.70
2019-01-17T19:41:57.784Z,61.23
2019-01-17T19:44:28.374Z,70.90
2019-01-17T19:46:58.984Z,81.77
2019-01-17T19:49:29.488Z,61.67
2019-01-17T19:51:59.909Z,57.50
2019-01-17T19:54:30.599Z,56.03
2019-01-17T19:57:01.034Z,55.63
2019-01-17T19:59:31.889Z,62.10
2019-01-17T20:02:02.664Z,50.70
2019-01-17T20:04:33.155Z,53.60
2019-01-17T20:07:04.609Z,55.20
2019-01-17T20:09:35.255Z,58.13
2019-01-17T20:12:06.504Z,52.80
2019-01-17T20:14:37.189Z,54.03
2019-01-17T20:17:08.114Z,59.50
2019-01-17T20:19:38.781Z,53.73
2019-01-17T20:22:09.399Z,50.47
2019-01-17T20:24:40.219Z,55.30
2019-01-17T20:27:11.279Z,55.90
2019-01-17T20:29:42.869Z,51.00
2019-01-17T20:32:18.748Z,53.63
2019-01-17T20:34:46.039Z,51.60
2019-01-17T20:37:16.809Z,54.60
2019-01-17T20:39:47.604Z,53.57
2019-01-17T20:42:18.360Z,54.77
2019-01-17T20:44:48.950Z,63.43
2019-01-17T20:47:19.734Z,55.77
2019-01-17T20:49:50.935Z,61.17
2019-01-17T20:52:21.739Z,63.30
2019-01-17T20:54:52.710Z,57.67
2019-01-17T20:57:24.165Z,52.90
2019-01-17T20:59:55.330Z,54.87
2019-01-17T21:02:26.199Z,50.77
2019-01-17T21:04:57.104Z,53.53
2019-01-17T21:07:30.679Z,52.43
2019-01-17T21:10:02.310Z,48.40
2019-01-17T21:12:33.354Z,57.57
2019-01-17T21:15:04.914Z,54.83
2019-01-17T21:17:35.974Z,55.80
2019-01-17T21:20:07.464Z,52.90
2019-01-17T21:22:38.250Z,54.97
2019-01-17T21:25:12.240Z,52.83
2019-01-17T21:27:43.319Z,52.70
2019-01-17T21:30:17.521Z,52.07
2019-01-17T21:32:48.289Z,53.67
2019-01-17T21:35:18.993Z,55.57
2019-01-17T21:37:49.838Z,56.63
2019-01-17T21:40:21.484Z,59.03
2019-01-17T21:42:52.310Z,58.17
2019-01-17T21:45:23.089Z,62.87
2019-01-17T21:47:53.849Z,64.23
2019-01-17T21:50:27.124Z,69.17
2019-01-17T21:52:58.213Z,70.97
2019-01-17T21:55:28.909Z,67.20
2019-01-17T21:57:59.805Z,68.03
2019-01-17T22:00:30.623Z,75.30
2019-01-17T22:03:01.249Z,77.00
2019-01-17T22:05:32.224Z,76.60
2019-01-17T22:08:03.404Z,68.83
2019-01-17T22:10:34.053Z,72.13
2019-01-17T22:13:04.619Z,72.67
2019-01-17T22:15:35.198Z,81.90
2019-01-17T22:18:05.760Z,72.43
2019-01-17T22:20:36.238Z,72.07
2019-01-17T22:23:06.928Z,81.57
2019-01-17T22:25:37.500Z,71.57
2019-01-17T22:28:08.139Z,70.43
2019-01-17T22:30:38.870Z,73.33
2019-01-17T22:33:09.869Z,65.93
2019-01-17T22:35:40.309Z,66.33
2019-01-17T22:38:11.123Z,65.80
2019-01-17T22:40:41.749Z,72.13
2019-01-17T22:43:12.399Z,71.07
2019-01-17T22:45:43.098Z,74.67
2019-01-17T22:48:13.678Z,71.30
2019-01-17T22:50:44.103Z,73.13
2019-01-17T22:53:14.683Z,66.97
2019-01-17T22:55:45.234Z,78.50
2019-01-17T22:58:15.719Z,68.13
2019-01-17T23:00:58.783Z,71.40
2019-01-17T23:03:41.285Z,73.13
2019-01-17T23:06:11.904Z,71.97
2019-01-17T23:08:42.338Z,78.00
2019-01-17T23:11:13.040Z,69.17
2019-01-17T23:13:43.751Z,70.13
2019-01-17T23:16:14.258Z,72.23
2019-01-17T23:18:44.888Z,76.40
2019-01-17T23:21:15.524Z,71.43
2019-01-17T23:23:46.119Z,75.53
2019-01-17T23:26:17.013Z,69.30
2019-01-17T23:28:47.719Z,69.57
2019-01-17T23:31:18.514Z,72.80
2019-01-17T23:33:49.074Z,81.23
2019-01-17T23:36:19.733Z,79.83
2019-01-17T23:38:50.249Z,75.40
2019-01-17T23:41:20.999Z,72.37
2019-01-17T23:43:51.514Z,79.73
2019-01-17T23:46:22.023Z,78.93
2019-01-17T23:48:52.544Z,73.83
2019-01-17T23:51:23.129Z,71.57
2019-01-17T23:53:53.559Z,76.00
2019-01-17T23:56:23.948Z,82.80
2019-01-17T23:58:54.385Z,75.83
